sensor_id;sensor_type;location;lat;lon;timestamp;P1;durP1;ratioP1;P2;durP2;ratioP2
52102;SDS011;38101;53.126;6.878;2022-08-05T00:03:37;7.63;;;4.10;;
52102;SDS011;38101;53.126;6.878;2022-08-05T00:06:03;6.10;;;4.10;;
52102;SDS011;38101;53.126;6.878;2022-08-05T00:08:29;7.15;;;4.25;;
52102;SDS011;38101;53.126;6.878;2022-08-05T00:10:55;6.70;;;4.50;;
52102;SDS011;38101;53.126;6.878;2022-08-05T00:13:21;8.32;;;4.80;;
52102;SDS011;38101;53.126;6.878;2022-08-05T00:15:47;7.00;;;4.30;;
52102;SDS011;38101;53.126;6.878;2022-08-05T00:18:13;7.22;;;4.85;;
52102;SDS011;38101;53.126;6.878;2022-08-05T00:20:38;8.45;;;4.70;;
52102;SDS011;38101;53.126;6.878;2022-08-05T00:23:04;6.53;;;4.57;;
52102;SDS011;38101;53.126;6.878;2022-08-05T00:25:30;6.82;;;4.45;;
52102;SDS011;38101;53.126;6.878;2022-08-05T00:27:55;7.70;;;5.35;;
52102;SDS011;38101;53.126;6.878;2022-08-05T00:30:21;6.65;;;4.90;;
52102;SDS011;38101;53.126;6.878;2022-08-05T00:32:46;7.93;;;4.65;;
52102;SDS011;38101;53.126;6.878;2022-08-05T00:35:13;7.40;;;4.78;;
52102;SDS011;38101;53.126;6.878;2022-08-05T00:37:39;8.02;;;5.10;;
52102;SDS011;38101;53.126;6.878;2022-08-05T00:40:05;8.98;;;4.80;;
52102;SDS011;38101;53.126;6.878;2022-08-05T00:42:32;7.45;;;5.03;;
52102;SDS011;38101;53.126;6.878;2022-08-05T00:44:59;7.95;;;5.13;;
52102;SDS011;38101;53.126;6.878;2022-08-05T00:47:25;8.02;;;5.10;;
52102;SDS011;38101;53.126;6.878;2022-08-05T00:49:51;7.68;;;4.55;;
52102;SDS011;38101;53.126;6.878;2022-08-05T00:52:17;7.95;;;5.05;;
52102;SDS011;38101;53.126;6.878;2022-08-05T00:54:44;7.90;;;4.85;;
52102;SDS011;38101;53.126;6.878;2022-08-05T00:57:09;7.40;;;4.93;;
52102;SDS011;38101;53.126;6.878;2022-08-05T00:59:35;8.98;;;5.00;;
52102;SDS011;38101;53.126;6.878;2022-08-05T01:02:01;7.22;;;4.93;;
52102;SDS011;38101;53.126;6.878;2022-08-05T01:04:27;8.82;;;5.43;;
52102;SDS011;38101;53.126;6.878;2022-08-05T01:06:53;8.55;;;5.30;;
52102;SDS011;38101;53.126;6.878;2022-08-05T01:09:18;6.68;;;5.05;;
52102;SDS011;38101;53.126;6.878;2022-08-05T01:11:44;9.40;;;5.60;;
52102;SDS011;38101;53.126;6.878;2022-08-05T01:14:13;7.47;;;5.32;;
52102;SDS011;38101;53.126;6.878;2022-08-05T01:16:53;8.38;;;6.03;;
52102;SDS011;38101;53.126;6.878;2022-08-05T01:19:52;7.80;;;5.10;;
52102;SDS011;38101;53.126;6.878;2022-08-05T01:28:17;7.05;;;5.18;;
52102;SDS011;38101;53.126;6.878;2022-08-05T01:31:11;6.82;;;4.90;;
52102;SDS011;38101;53.126;6.878;2022-08-05T01:37:22;7.40;;;5.20;;
52102;SDS011;38101;53.126;6.878;2022-08-05T01:39:53;8.15;;;5.00;;
52102;SDS011;38101;53.126;6.878;2022-08-05T01:42:21;9.43;;;5.47;;
52102;SDS011;38101;53.126;6.878;2022-08-05T01:44:48;8.07;;;5.32;;
52102;SDS011;38101;53.126;6.878;2022-08-05T01:47:15;10.70;;;5.75;;
52102;SDS011;38101;53.126;6.878;2022-08-05T01:49:43;7.43;;;5.97;;
52102;SDS011;38101;53.126;6.878;2022-08-05T01:52:10;7.30;;;4.95;;
52102;SDS011;38101;53.126;6.878;2022-08-05T01:54:42;7.53;;;4.65;;
52102;SDS011;38101;53.126;6.878;2022-08-05T01:57:23;6.25;;;4.95;;
52102;SDS011;38101;53.126;6.878;2022-08-05T01:59:53;8.60;;;4.97;;
52102;SDS011;38101;53.126;6.878;2022-08-05T02:02:22;7.13;;;4.60;;
52102;SDS011;38101;53.126;6.878;2022-08-05T02:04:49;6.03;;;4.38;;
52102;SDS011;38101;53.126;6.878;2022-08-05T02:07:16;5.72;;;4.32;;
52102;SDS011;38101;53.126;6.878;2022-08-05T02:09:42;8.43;;;4.38;;
52102;SDS011;38101;53.126;6.878;2022-08-05T02:12:11;5.88;;;4.55;;
52102;SDS011;38101;53.126;6.878;2022-08-05T02:14:42;5.78;;;4.63;;
52102;SDS011;38101;53.126;6.878;2022-08-05T02:17:17;9.63;;;4.80;;
52102;SDS011;38101;53.126;6.878;2022-08-05T02:19:50;8.27;;;4.43;;
52102;SDS011;38101;53.126;6.878;2022-08-05T02:22:22;7.38;;;4.32;;
52102;SDS011;38101;53.126;6.878;2022-08-05T02:24:58;7.35;;;4.55;;
52102;SDS011;38101;53.126;6.878;2022-08-05T02:27:27;6.13;;;4.32;;
52102;SDS011;38101;53.126;6.878;2022-08-05T02:29:54;10.85;;;4.72;;
52102;SDS011;38101;53.126;6.878;2022-08-05T02:32:21;7.45;;;4.28;;
52102;SDS011;38101;53.126;6.878;2022-08-05T02:34:49;5.28;;;4.22;;
52102;SDS011;38101;53.126;6.878;2022-08-05T02:37:17;5.68;;;4.10;;
52102;SDS011;38101;53.126;6.878;2022-08-05T02:39:43;6.72;;;4.55;;
52102;SDS011;38101;53.126;6.878;2022-08-05T02:42:11;5.75;;;4.15;;
52102;SDS011;38101;53.126;6.878;2022-08-05T02:44:38;6.40;;;4.35;;
52102;SDS011;38101;53.126;6.878;2022-08-05T02:47:05;6.10;;;4.32;;
52102;SDS011;38101;53.126;6.878;2022-08-05T02:49:34;8.40;;;4.57;;
52102;SDS011;38101;53.126;6.878;2022-08-05T02:52:02;7.13;;;4.20;;
52102;SDS011;38101;53.126;6.878;2022-08-05T02:54:33;6.18;;;4.18;;
52102;SDS011;38101;53.126;6.878;2022-08-05T02:57:01;6.97;;;4.45;;
52102;SDS011;38101;53.126;6.878;2022-08-05T02:59:29;7.15;;;4.63;;
52102;SDS011;38101;53.126;6.878;2022-08-05T03:01:55;7.20;;;4.35;;
52102;SDS011;38101;53.126;6.878;2022-08-05T03:04:24;6.30;;;4.53;;
52102;SDS011;38101;53.126;6.878;2022-08-05T03:06:51;7.18;;;3.97;;
52102;SDS011;38101;53.126;6.878;2022-08-05T03:09:16;7.32;;;4.00;;
52102;SDS011;38101;53.126;6.878;2022-08-05T03:11:42;5.43;;;3.88;;
52102;SDS011;38101;53.126;6.878;2022-08-05T03:14:08;6.70;;;4.22;;
52102;SDS011;38101;53.126;6.878;2022-08-05T03:16:34;5.50;;;4.10;;
52102;SDS011;38101;53.126;6.878;2022-08-05T03:19:00;6.72;;;4.18;;
52102;SDS011;38101;53.126;6.878;2022-08-05T03:21:26;4.88;;;4.18;;
52102;SDS011;38101;53.126;6.878;2022-08-05T03:23:52;6.40;;;4.15;;
52102;SDS011;38101;53.126;6.878;2022-08-05T03:26:18;5.90;;;3.88;;
52102;SDS011;38101;53.126;6.878;2022-08-05T03:28:43;6.60;;;4.20;;
52102;SDS011;38101;53.126;6.878;2022-08-05T03:31:09;6.32;;;3.88;;
52102;SDS011;38101;53.126;6.878;2022-08-05T03:33:36;5.28;;;3.58;;
52102;SDS011;38101;53.126;6.878;2022-08-05T03:36:03;5.70;;;3.85;;
52102;SDS011;38101;53.126;6.878;2022-08-05T03:38:29;4.68;;;4.03;;
52102;SDS011;38101;53.126;6.878;2022-08-05T03:40:55;6.82;;;4.30;;
52102;SDS011;38101;53.126;6.878;2022-08-05T03:43:21;6.60;;;4.15;;
52102;SDS011;38101;53.126;6.878;2022-08-05T03:45:52;5.28;;;3.53;;
52102;SDS011;38101;53.126;6.878;2022-08-05T03:48:18;4.80;;;3.72;;
52102;SDS011;38101;53.126;6.878;2022-08-05T03:50:51;7.68;;;4.20;;
52102;SDS011;38101;53.126;6.878;2022-08-05T03:53:43;5.30;;;4.10;;
52102;SDS011;38101;53.126;6.878;2022-08-05T03:56:21;5.05;;;4.18;;
52102;SDS011;38101;53.126;6.878;2022-08-05T03:58:53;7.68;;;4.15;;
52102;SDS011;38101;53.126;6.878;2022-08-05T04:01:23;5.15;;;4.10;;
52102;SDS011;38101;53.126;6.878;2022-08-05T04:03:52;5.30;;;3.92;;
52102;SDS011;38101;53.126;6.878;2022-08-05T04:06:19;5.97;;;4.00;;
52102;SDS011;38101;53.126;6.878;2022-08-05T04:08:45;6.13;;;4.20;;
52102;SDS011;38101;53.126;6.878;2022-08-05T04:11:11;6.40;;;3.85;;
52102;SDS011;38101;53.126;6.878;2022-08-05T04:13:38;4.93;;;3.90;;
52102;SDS011;38101;53.126;6.878;2022-08-05T04:16:06;7.70;;;4.28;;
52102;SDS011;38101;53.126;6.878;2022-08-05T04:18:32;7.00;;;4.07;;
52102;SDS011;38101;53.126;6.878;2022-08-05T04:20:58;7.32;;;4.03;;
52102;SDS011;38101;53.126;6.878;2022-08-05T04:23:26;7.18;;;4.18;;
52102;SDS011;38101;53.126;6.878;2022-08-05T04:25:53;5.18;;;4.05;;
52102;SDS011;38101;53.126;6.878;2022-08-05T04:28:19;6.18;;;4.38;;
52102;SDS011;38101;53.126;6.878;2022-08-05T04:30:46;6.70;;;4.28;;
52102;SDS011;38101;53.126;6.878;2022-08-05T04:33:12;6.63;;;4.10;;
52102;SDS011;38101;53.126;6.878;2022-08-05T04:35:38;6.75;;;4.10;;
52102;SDS011;38101;53.126;6.878;2022-08-05T04:38:04;5.90;;;4.10;;
52102;SDS011;38101;53.126;6.878;2022-08-05T04:40:34;7.68;;;4.20;;
52102;SDS011;38101;53.126;6.878;2022-08-05T04:43:00;5.80;;;3.95;;
52102;SDS011;38101;53.126;6.878;2022-08-05T04:45:27;7.72;;;4.10;;
52102;SDS011;38101;53.126;6.878;2022-08-05T04:47:52;7.95;;;4.32;;
52102;SDS011;38101;53.126;6.878;2022-08-05T04:50:18;5.70;;;3.75;;
52102;SDS011;38101;53.126;6.878;2022-08-05T04:52:44;6.03;;;3.97;;
52102;SDS011;38101;53.126;6.878;2022-08-05T04:55:10;6.10;;;4.15;;
52102;SDS011;38101;53.126;6.878;2022-08-05T04:57:35;6.18;;;3.88;;
52102;SDS011;38101;53.126;6.878;2022-08-05T05:00:03;8.75;;;4.82;;
52102;SDS011;38101;53.126;6.878;2022-08-05T05:02:29;6.05;;;4.10;;
52102;SDS011;38101;53.126;6.878;2022-08-05T05:04:55;6.93;;;4.65;;
52102;SDS011;38101;53.126;6.878;2022-08-05T05:07:21;7.00;;;4.43;;
52102;SDS011;38101;53.126;6.878;2022-08-05T05:09:47;7.45;;;4.82;;
52102;SDS011;38101;53.126;6.878;2022-08-05T05:12:13;7.90;;;4.63;;
52102;SDS011;38101;53.126;6.878;2022-08-05T05:14:38;8.50;;;4.60;;
52102;SDS011;38101;53.126;6.878;2022-08-05T05:17:04;7.53;;;4.53;;
52102;SDS011;38101;53.126;6.878;2022-08-05T05:19:30;8.13;;;4.50;;
52102;SDS011;38101;53.126;6.878;2022-08-05T05:21:56;6.60;;;4.40;;
52102;SDS011;38101;53.126;6.878;2022-08-05T05:24:21;6.20;;;4.50;;
52102;SDS011;38101;53.126;6.878;2022-08-05T05:26:47;7.03;;;4.40;;
52102;SDS011;38101;53.126;6.878;2022-08-05T05:29:13;6.20;;;4.30;;
52102;SDS011;38101;53.126;6.878;2022-08-05T05:31:38;7.22;;;4.72;;
52102;SDS011;38101;53.126;6.878;2022-08-05T05:34:04;6.57;;;4.43;;
52102;SDS011;38101;53.126;6.878;2022-08-05T05:36:30;5.50;;;4.32;;
52102;SDS011;38101;53.126;6.878;2022-08-05T05:38:56;7.53;;;4.55;;
52102;SDS011;38101;53.126;6.878;2022-08-05T05:41:22;5.93;;;4.70;;
52102;SDS011;38101;53.126;6.878;2022-08-05T05:43:47;4.90;;;3.85;;
52102;SDS011;38101;53.126;6.878;2022-08-05T05:46:13;5.50;;;3.75;;
52102;SDS011;38101;53.126;6.878;2022-08-05T05:48:39;5.65;;;3.80;;
52102;SDS011;38101;53.126;6.878;2022-08-05T05:51:08;7.78;;;3.88;;
52102;SDS011;38101;53.126;6.878;2022-08-05T05:53:33;6.05;;;4.00;;
52102;SDS011;38101;53.126;6.878;2022-08-05T05:55:59;7.28;;;4.10;;
52102;SDS011;38101;53.126;6.878;2022-08-05T05:58:25;8.23;;;3.70;;
52102;SDS011;38101;53.126;6.878;2022-08-05T06:00:51;6.65;;;3.85;;
52102;SDS011;38101;53.126;6.878;2022-08-05T06:03:17;8.05;;;3.63;;
52102;SDS011;38101;53.126;6.878;2022-08-05T06:05:42;6.32;;;4.10;;
52102;SDS011;38101;53.126;6.878;2022-08-05T06:08:08;6.95;;;3.90;;
52102;SDS011;38101;53.126;6.878;2022-08-05T06:10:34;8.18;;;4.20;;
52102;SDS011;38101;53.126;6.878;2022-08-05T06:13:00;5.82;;;4.10;;
52102;SDS011;38101;53.126;6.878;2022-08-05T06:15:26;5.78;;;4.10;;
52102;SDS011;38101;53.126;6.878;2022-08-05T06:17:52;5.57;;;3.72;;
52102;SDS011;38101;53.126;6.878;2022-08-05T06:20:17;6.22;;;4.00;;
52102;SDS011;38101;53.126;6.878;2022-08-05T06:22:43;7.80;;;3.90;;
52102;SDS011;38101;53.126;6.878;2022-08-05T06:25:09;7.60;;;4.20;;
52102;SDS011;38101;53.126;6.878;2022-08-05T06:27:35;4.93;;;3.70;;
52102;SDS011;38101;53.126;6.878;2022-08-05T06:30:01;4.97;;;3.47;;
52102;SDS011;38101;53.126;6.878;2022-08-05T06:32:28;6.13;;;3.78;;
52102;SDS011;38101;53.126;6.878;2022-08-05T06:34:54;6.03;;;3.67;;
52102;SDS011;38101;53.126;6.878;2022-08-05T06:37:23;4.25;;;3.08;;
52102;SDS011;38101;53.126;6.878;2022-08-05T06:39:50;4.85;;;3.30;;
52102;SDS011;38101;53.126;6.878;2022-08-05T06:42:16;8.15;;;3.22;;
52102;SDS011;38101;53.126;6.878;2022-08-05T06:44:41;4.85;;;3.03;;
52102;SDS011;38101;53.126;6.878;2022-08-05T06:47:07;4.82;;;3.30;;
52102;SDS011;38101;53.126;6.878;2022-08-05T06:49:34;4.45;;;3.08;;
52102;SDS011;38101;53.126;6.878;2022-08-05T06:52:00;5.32;;;3.03;;
52102;SDS011;38101;53.126;6.878;2022-08-05T06:54:26;3.92;;;2.53;;
52102;SDS011;38101;53.126;6.878;2022-08-05T06:56:52;4.53;;;2.65;;
52102;SDS011;38101;53.126;6.878;2022-08-05T06:59:17;3.08;;;2.22;;
52102;SDS011;38101;53.126;6.878;2022-08-05T07:01:43;3.78;;;2.17;;
52102;SDS011;38101;53.126;6.878;2022-08-05T07:04:09;3.72;;;2.35;;
52102;SDS011;38101;53.126;6.878;2022-08-05T07:06:35;4.28;;;2.67;;
52102;SDS011;38101;53.126;6.878;2022-08-05T07:09:01;3.50;;;2.20;;
52102;SDS011;38101;53.126;6.878;2022-08-05T07:11:27;4.13;;;2.22;;
52102;SDS011;38101;53.126;6.878;2022-08-05T07:13:55;4.38;;;2.15;;
52102;SDS011;38101;53.126;6.878;2022-08-05T07:16:39;2.90;;;2.25;;
52102;SDS011;38101;53.126;6.878;2022-08-05T07:19:18;4.28;;;2.40;;
52102;SDS011;38101;53.126;6.878;2022-08-05T07:21:48;3.17;;;2.28;;
52102;SDS011;38101;53.126;6.878;2022-08-05T07:24:15;4.10;;;2.20;;
52102;SDS011;38101;53.126;6.878;2022-08-05T07:26:41;4.65;;;2.13;;
52102;SDS011;38101;53.126;6.878;2022-08-05T07:29:08;3.97;;;2.10;;
52102;SDS011;38101;53.126;6.878;2022-08-05T07:31:34;4.25;;;2.50;;
52102;SDS011;38101;53.126;6.878;2022-08-05T07:34:00;2.47;;;1.90;;
52102;SDS011;38101;53.126;6.878;2022-08-05T07:36:27;4.47;;;2.13;;
52102;SDS011;38101;53.126;6.878;2022-08-05T07:38:53;4.18;;;2.30;;
52102;SDS011;38101;53.126;6.878;2022-08-05T07:41:21;4.40;;;1.90;;
52102;SDS011;38101;53.126;6.878;2022-08-05T07:43:48;3.72;;;2.10;;
52102;SDS011;38101;53.126;6.878;2022-08-05T07:46:14;3.85;;;2.00;;
52102;SDS011;38101;53.126;6.878;2022-08-05T07:48:40;3.45;;;1.90;;
52102;SDS011;38101;53.126;6.878;2022-08-05T07:51:06;3.53;;;2.08;;
52102;SDS011;38101;53.126;6.878;2022-08-05T07:53:32;6.95;;;2.50;;
52102;SDS011;38101;53.126;6.878;2022-08-05T07:55:57;3.95;;;2.08;;
52102;SDS011;38101;53.126;6.878;2022-08-05T07:58:23;3.58;;;2.22;;
52102;SDS011;38101;53.126;6.878;2022-08-05T08:00:49;3.08;;;1.95;;
52102;SDS011;38101;53.126;6.878;2022-08-05T08:03:14;3.47;;;2.33;;
52102;SDS011;38101;53.126;6.878;2022-08-05T08:05:41;3.53;;;2.08;;
52102;SDS011;38101;53.126;6.878;2022-08-05T08:08:08;3.67;;;2.00;;
52102;SDS011;38101;53.126;6.878;2022-08-05T08:10:35;4.38;;;2.20;;
52102;SDS011;38101;53.126;6.878;2022-08-05T08:13:01;3.78;;;2.20;;
52102;SDS011;38101;53.126;6.878;2022-08-05T08:15:26;5.72;;;1.98;;
52102;SDS011;38101;53.126;6.878;2022-08-05T08:17:52;3.03;;;2.10;;
52102;SDS011;38101;53.126;6.878;2022-08-05T08:20:22;4.18;;;2.10;;
52102;SDS011;38101;53.126;6.878;2022-08-05T08:22:50;5.70;;;2.22;;
52102;SDS011;38101;53.126;6.878;2022-08-05T08:25:20;2.97;;;2.10;;
52102;SDS011;38101;53.126;6.878;2022-08-05T08:27:46;3.53;;;2.13;;
52102;SDS011;38101;53.126;6.878;2022-08-05T08:30:12;5.35;;;2.30;;
52102;SDS011;38101;53.126;6.878;2022-08-05T08:32:38;3.88;;;2.10;;
52102;SDS011;38101;53.126;6.878;2022-08-05T08:35:04;3.05;;;1.90;;
52102;SDS011;38101;53.126;6.878;2022-08-05T08:37:31;3.88;;;2.00;;
52102;SDS011;38101;53.126;6.878;2022-08-05T08:39:57;4.40;;;2.45;;
52102;SDS011;38101;53.126;6.878;2022-08-05T08:42:23;3.55;;;1.98;;
52102;SDS011;38101;53.126;6.878;2022-08-05T08:44:49;4.18;;;2.22;;
52102;SDS011;38101;53.126;6.878;2022-08-05T08:47:21;4.13;;;2.13;;
52102;SDS011;38101;53.126;6.878;2022-08-05T08:49:53;3.88;;;2.03;;
52102;SDS011;38101;53.126;6.878;2022-08-05T08:52:24;3.55;;;2.00;;
52102;SDS011;38101;53.126;6.878;2022-08-05T08:54:54;3.55;;;2.30;;
52102;SDS011;38101;53.126;6.878;2022-08-05T08:57:20;4.00;;;2.28;;
52102;SDS011;38101;53.126;6.878;2022-08-05T08:59:46;4.05;;;1.90;;
52102;SDS011;38101;53.126;6.878;2022-08-05T09:02:13;3.33;;;2.10;;
52102;SDS011;38101;53.126;6.878;2022-08-05T09:04:39;2.92;;;1.70;;
52102;SDS011;38101;53.126;6.878;2022-08-05T09:07:06;3.45;;;1.90;;
52102;SDS011;38101;53.126;6.878;2022-08-05T09:09:32;2.35;;;1.83;;
52102;SDS011;38101;53.126;6.878;2022-08-05T09:11:59;3.92;;;1.65;;
52102;SDS011;38101;53.126;6.878;2022-08-05T09:14:25;1.95;;;1.50;;
52102;SDS011;38101;53.126;6.878;2022-08-05T09:16:51;2.80;;;1.60;;
52102;SDS011;38101;53.126;6.878;2022-08-05T09:19:17;2.90;;;1.67;;
52102;SDS011;38101;53.126;6.878;2022-08-05T09:21:43;2.47;;;1.65;;
52102;SDS011;38101;53.126;6.878;2022-08-05T09:24:09;3.05;;;1.60;;
52102;SDS011;38101;53.126;6.878;2022-08-05T09:26:37;3.08;;;1.50;;
52102;SDS011;38101;53.126;6.878;2022-08-05T09:29:06;3.70;;;1.50;;
52102;SDS011;38101;53.126;6.878;2022-08-05T09:31:33;2.60;;;1.60;;
52102;SDS011;38101;53.126;6.878;2022-08-05T09:34:05;3.58;;;1.55;;
52102;SDS011;38101;53.126;6.878;2022-08-05T09:39:07;5.22;;;1.52;;
52102;SDS011;38101;53.126;6.878;2022-08-05T09:42:18;3.67;;;1.70;;
52102;SDS011;38101;53.126;6.878;2022-08-05T09:44:39;2.80;;;1.70;;
52102;SDS011;38101;53.126;6.878;2022-08-05T09:47:11;2.85;;;1.50;;
52102;SDS011;38101;53.126;6.878;2022-08-05T09:49:48;4.97;;;1.50;;
52102;SDS011;38101;53.126;6.878;2022-08-05T09:52:19;2.45;;;1.40;;
52102;SDS011;38101;53.126;6.878;2022-08-05T09:57:38;3.53;;;1.48;;
52102;SDS011;38101;53.126;6.878;2022-08-05T10:02:52;1.85;;;1.30;;
52102;SDS011;38101;53.126;6.878;2022-08-05T10:05:22;2.40;;;1.48;;
52102;SDS011;38101;53.126;6.878;2022-08-05T10:07:54;4.47;;;1.30;;
52102;SDS011;38101;53.126;6.878;2022-08-05T10:10:23;1.92;;;1.00;;
52102;SDS011;38101;53.126;6.878;2022-08-05T10:12:51;3.88;;;1.40;;
52102;SDS011;38101;53.126;6.878;2022-08-05T10:20:41;2.50;;;1.15;;
52102;SDS011;38101;53.126;6.878;2022-08-05T10:23:15;4.60;;;1.42;;
52102;SDS011;38101;53.126;6.878;2022-08-05T10:25:46;3.03;;;1.40;;
52102;SDS011;38101;53.126;6.878;2022-08-05T10:28:12;1.23;;;1.08;;
52102;SDS011;38101;53.126;6.878;2022-08-05T10:30:39;3.03;;;1.60;;
52102;SDS011;38101;53.126;6.878;2022-08-05T10:33:04;4.65;;;1.30;;
52102;SDS011;38101;53.126;6.878;2022-08-05T10:35:31;3.00;;;1.17;;
52102;SDS011;38101;53.126;6.878;2022-08-05T10:37:57;2.60;;;1.25;;
52102;SDS011;38101;53.126;6.878;2022-08-05T10:40:29;2.88;;;1.58;;
52102;SDS011;38101;53.126;6.878;2022-08-05T10:43:07;2.78;;;1.15;;
52102;SDS011;38101;53.126;6.878;2022-08-05T10:45:39;1.48;;;1.30;;
52102;SDS011;38101;53.126;6.878;2022-08-05T10:48:47;3.03;;;1.30;;
52102;SDS011;38101;53.126;6.878;2022-08-05T10:51:05;2.45;;;0.80;;
52102;SDS011;38101;53.126;6.878;2022-08-05T10:56:03;2.97;;;1.10;;
52102;SDS011;38101;53.126;6.878;2022-08-05T10:58:31;2.50;;;1.20;;
52102;SDS011;38101;53.126;6.878;2022-08-05T11:00:58;2.67;;;1.02;;
52102;SDS011;38101;53.126;6.878;2022-08-05T11:03:28;1.83;;;0.95;;
52102;SDS011;38101;53.126;6.878;2022-08-05T11:06:04;3.30;;;0.93;;
52102;SDS011;38101;53.126;6.878;2022-08-05T11:08:34;1.95;;;0.80;;
52102;SDS011;38101;53.126;6.878;2022-08-05T11:13:58;1.75;;;0.70;;
52102;SDS011;38101;53.126;6.878;2022-08-05T11:16:26;3.47;;;0.88;;
52102;SDS011;38101;53.126;6.878;2022-08-05T11:21:50;1.55;;;0.80;;
52102;SDS011;38101;53.126;6.878;2022-08-05T11:24:17;3.25;;;1.00;;
52102;SDS011;38101;53.126;6.878;2022-08-05T11:26:44;1.63;;;0.65;;
52102;SDS011;38101;53.126;6.878;2022-08-05T11:29:32;3.67;;;0.88;;
52102;SDS011;38101;53.126;6.878;2022-08-05T11:32:22;4.18;;;1.00;;
52102;SDS011;38101;53.126;6.878;2022-08-05T11:34:52;1.95;;;1.00;;
52102;SDS011;38101;53.126;6.878;2022-08-05T11:40:18;0.95;;;0.80;;
52102;SDS011;38101;53.126;6.878;2022-08-05T11:42:44;1.00;;;0.68;;
52102;SDS011;38101;53.126;6.878;2022-08-05T11:45:11;3.63;;;0.80;;
52102;SDS011;38101;53.126;6.878;2022-08-05T11:47:37;1.92;;;1.00;;
52102;SDS011;38101;53.126;6.878;2022-08-05T11:50:03;2.65;;;0.82;;
52102;SDS011;38101;53.126;6.878;2022-08-05T11:52:29;2.50;;;0.70;;
52102;SDS011;38101;53.126;6.878;2022-08-05T11:54:55;1.92;;;0.98;;
52102;SDS011;38101;53.126;6.878;2022-08-05T11:57:26;2.22;;;0.93;;
52102;SDS011;38101;53.126;6.878;2022-08-05T11:59:56;2.80;;;1.15;;
52102;SDS011;38101;53.126;6.878;2022-08-05T12:02:25;1.25;;;0.70;;
52102;SDS011;38101;53.126;6.878;2022-08-05T12:04:53;2.45;;;1.00;;
52102;SDS011;38101;53.126;6.878;2022-08-05T12:07:18;4.45;;;1.10;;
52102;SDS011;38101;53.126;6.878;2022-08-05T12:12:24;4.00;;;0.97;;
52102;SDS011;38101;53.126;6.878;2022-08-05T12:14:53;1.75;;;1.05;;
52102;SDS011;38101;53.126;6.878;2022-08-05T12:17:19;1.45;;;0.90;;
52102;SDS011;38101;53.126;6.878;2022-08-05T12:19:46;3.70;;;0.90;;
52102;SDS011;38101;53.126;6.878;2022-08-05T12:22:20;3.42;;;1.10;;
52102;SDS011;38101;53.126;6.878;2022-08-05T12:24:51;2.25;;;0.88;;
52102;SDS011;38101;53.126;6.878;2022-08-05T12:27:21;3.08;;;1.20;;
52102;SDS011;38101;53.126;6.878;2022-08-05T12:32:23;3.03;;;1.20;;
52102;SDS011;38101;53.126;6.878;2022-08-05T12:34:48;2.75;;;1.08;;
52102;SDS011;38101;53.126;6.878;2022-08-05T12:37:14;2.22;;;1.20;;
52102;SDS011;38101;53.126;6.878;2022-08-05T12:39:41;6.50;;;1.38;;
52102;SDS011;38101;53.126;6.878;2022-08-05T12:42:14;2.42;;;1.00;;
52102;SDS011;38101;53.126;6.878;2022-08-05T12:44:44;1.27;;;0.80;;
52102;SDS011;38101;53.126;6.878;2022-08-05T12:47:11;2.47;;;1.13;;
52102;SDS011;38101;53.126;6.878;2022-08-05T12:49:39;3.13;;;1.17;;
52102;SDS011;38101;53.126;6.878;2022-08-05T12:52:10;2.10;;;1.00;;
52102;SDS011;38101;53.126;6.878;2022-08-05T12:57:06;1.75;;;1.00;;
52102;SDS011;38101;53.126;6.878;2022-08-05T12:59:45;2.85;;;1.08;;
52102;SDS011;38101;53.126;6.878;2022-08-05T13:02:22;2.13;;;0.90;;
52102;SDS011;38101;53.126;6.878;2022-08-05T13:04:50;1.77;;;1.10;;
52102;SDS011;38101;53.126;6.878;2022-08-05T13:07:20;2.60;;;1.23;;
52102;SDS011;38101;53.126;6.878;2022-08-05T13:09:56;7.00;;;1.58;;
52102;SDS011;38101;53.126;6.878;2022-08-05T13:12:24;1.38;;;0.90;;
52102;SDS011;38101;53.126;6.878;2022-08-05T13:14:51;3.70;;;1.00;;
52102;SDS011;38101;53.126;6.878;2022-08-05T13:17:22;3.17;;;1.20;;
52102;SDS011;38101;53.126;6.878;2022-08-05T13:22:35;2.05;;;1.10;;
52102;SDS011;38101;53.126;6.878;2022-08-05T13:25:06;2.58;;;1.30;;
52102;SDS011;38101;53.126;6.878;2022-08-05T13:30:02;2.92;;;0.82;;
52102;SDS011;38101;53.126;6.878;2022-08-05T13:32:28;4.05;;;1.00;;
52102;SDS011;38101;53.126;6.878;2022-08-05T13:34:54;1.48;;;1.05;;
52102;SDS011;38101;53.126;6.878;2022-08-05T13:37:20;3.00;;;1.00;;
52102;SDS011;38101;53.126;6.878;2022-08-05T13:39:47;3.40;;;1.23;;
52102;SDS011;38101;53.126;6.878;2022-08-05T13:42:14;2.75;;;0.75;;
52102;SDS011;38101;53.126;6.878;2022-08-05T13:44:40;3.10;;;0.98;;
52102;SDS011;38101;53.126;6.878;2022-08-05T13:47:06;1.90;;;1.00;;
52102;SDS011;38101;53.126;6.878;2022-08-05T13:49:32;3.53;;;1.23;;
52102;SDS011;38101;53.126;6.878;2022-08-05T13:52:07;4.55;;;1.70;;
52102;SDS011;38101;53.126;6.878;2022-08-05T13:54:34;3.28;;;1.17;;
52102;SDS011;38101;53.126;6.878;2022-08-05T13:57:00;2.60;;;0.90;;
52102;SDS011;38101;53.126;6.878;2022-08-05T13:59:25;2.67;;;1.30;;
52102;SDS011;38101;53.126;6.878;2022-08-05T14:01:52;4.57;;;1.55;;
52102;SDS011;38101;53.126;6.878;2022-08-05T14:04:18;3.35;;;1.20;;
52102;SDS011;38101;53.126;6.878;2022-08-05T14:07:02;4.30;;;1.10;;
52102;SDS011;38101;53.126;6.878;2022-08-05T14:09:28;3.40;;;1.30;;
52102;SDS011;38101;53.126;6.878;2022-08-05T14:11:54;3.08;;;1.38;;
52102;SDS011;38101;53.126;6.878;2022-08-05T14:14:19;2.72;;;1.30;;
52102;SDS011;38101;53.126;6.878;2022-08-05T14:16:45;1.30;;;1.00;;
52102;SDS011;38101;53.126;6.878;2022-08-05T14:19:11;1.35;;;1.00;;
52102;SDS011;38101;53.126;6.878;2022-08-05T14:21:36;3.80;;;1.17;;
52102;SDS011;38101;53.126;6.878;2022-08-05T14:24:02;2.25;;;1.10;;
52102;SDS011;38101;53.126;6.878;2022-08-05T14:26:28;1.52;;;1.10;;
52102;SDS011;38101;53.126;6.878;2022-08-05T14:28:54;3.80;;;1.15;;
52102;SDS011;38101;53.126;6.878;2022-08-05T14:31:19;3.00;;;1.30;;
52102;SDS011;38101;53.126;6.878;2022-08-05T14:33:46;2.50;;;1.00;;
52102;SDS011;38101;53.126;6.878;2022-08-05T14:36:12;2.85;;;1.05;;
52102;SDS011;38101;53.126;6.878;2022-08-05T14:38:38;3.25;;;1.10;;
52102;SDS011;38101;53.126;6.878;2022-08-05T14:41:07;4.90;;;1.40;;
52102;SDS011;38101;53.126;6.878;2022-08-05T14:43:33;1.27;;;1.10;;
52102;SDS011;38101;53.126;6.878;2022-08-05T14:46:00;2.83;;;1.25;;
52102;SDS011;38101;53.126;6.878;2022-08-05T14:48:26;3.55;;;1.60;;
52102;SDS011;38101;53.126;6.878;2022-08-05T14:50:51;5.88;;;1.52;;
52102;SDS011;38101;53.126;6.878;2022-08-05T14:53:17;4.00;;;1.60;;
52102;SDS011;38101;53.126;6.878;2022-08-05T14:55:43;2.80;;;1.40;;
52102;SDS011;38101;53.126;6.878;2022-08-05T14:58:09;2.53;;;1.33;;
52102;SDS011;38101;53.126;6.878;2022-08-05T15:00:35;3.00;;;1.27;;
52102;SDS011;38101;53.126;6.878;2022-08-05T15:03:01;2.88;;;1.30;;
52102;SDS011;38101;53.126;6.878;2022-08-05T15:05:27;4.38;;;1.30;;
52102;SDS011;38101;53.126;6.878;2022-08-05T15:07:53;2.05;;;1.20;;
52102;SDS011;38101;53.126;6.878;2022-08-05T15:10:19;2.30;;;1.08;;
52102;SDS011;38101;53.126;6.878;2022-08-05T15:12:45;4.22;;;1.08;;
52102;SDS011;38101;53.126;6.878;2022-08-05T15:15:10;3.75;;;1.30;;
52102;SDS011;38101;53.126;6.878;2022-08-05T15:17:36;2.83;;;1.15;;
52102;SDS011;38101;53.126;6.878;2022-08-05T15:20:03;3.55;;;1.30;;
52102;SDS011;38101;53.126;6.878;2022-08-05T15:22:29;3.25;;;1.23;;
52102;SDS011;38101;53.126;6.878;2022-08-05T15:24:55;5.88;;;1.35;;
52102;SDS011;38101;53.126;6.878;2022-08-05T15:27:23;4.25;;;1.30;;
52102;SDS011;38101;53.126;6.878;2022-08-05T15:29:48;2.75;;;1.30;;
52102;SDS011;38101;53.126;6.878;2022-08-05T15:32:14;6.40;;;1.85;;
52102;SDS011;38101;53.126;6.878;2022-08-05T15:34:40;5.88;;;1.40;;
52102;SDS011;38101;53.126;6.878;2022-08-05T15:37:05;3.80;;;1.10;;
52102;SDS011;38101;53.126;6.878;2022-08-05T15:39:31;4.15;;;1.13;;
52102;SDS011;38101;53.126;6.878;2022-08-05T15:41:57;3.67;;;1.40;;